Historique des stations

Station météo de Le Mesnil-Thomas

Altitude de la station : 196 m







Données météorologiques pour le 18/05/2021
Date
Heure
Températures Humidité Point de rosée Vitesse
du vent
Direction Rafales Windchill Pression Pluviométrie
Cumul
Date
Heure
Températures Humidité Point de rosée Vitesse
du vent
Direction Rafales Windchill Pression Pluviométrie
Cumul
18/05/2021 13:4414.7 °C69 %8.9 °C14 km/hSSE23 km/h13.9 1017 hPa-
18/05/2021 10:2810.7 °C87 %8.9 °C3 km/hO11 km/h10.0 1018 hPa-
18/05/2021 10:1410.5 °C88 %8.3 °C14 km/hOSO14 km/h10.0 1018 hPa-
18/05/2021 09:5910.2 °C88 %8.3 °C5 km/hSSO16 km/h9.4 1018 hPa-
18/05/2021 09:4410.0 °C89 %8.3 °C6 km/hSO11 km/h10.0 1018 hPa-
18/05/2021 09:299.7 °C90 %8.3 °C8 km/hS14 km/h8.9 1018 hPa-
18/05/2021 09:149.5 °C91 %8.3 °C8 km/hSSO14 km/h9.4 1018 hPa-
18/05/2021 08:599.2 °C91 %7.8 °C6 km/hS16 km/h8.3 1018 hPa-
18/05/2021 08:449.0 °C92 %7.8 °C5 km/hSSO16 km/h8.3 1018 hPa-
18/05/2021 08:288.8 °C92 %7.8 °C6 km/hS16 km/h7.8 1018 hPa-
18/05/2021 08:148.6 °C93 %7.2 °C8 km/hSSO18 km/h7.2 1018 hPa-
18/05/2021 07:598.3 °C93 %7.2 °C8 km/hSSO19 km/h7.2 1017 hPa-
18/05/2021 07:448.2 °C93 %7.2 °C5 km/hSSO13 km/h7.2 1017 hPa-
18/05/2021 07:288.1 °C94 %7.2 °C5 km/hSO19 km/h7.2 1017 hPa-
18/05/2021 07:147.9 °C93 %6.7 °C6 km/hSO13 km/h6.7 1017 hPa-
18/05/2021 06:597.9 °C93 %6.7 °C5 km/hS10 km/h7.8 1017 hPa-
18/05/2021 06:447.8 °C93 %6.7 °C3 km/hS11 km/h6.7 1017 hPa-
18/05/2021 06:297.9 °C93 %6.7 °C6 km/hSSO11 km/h7.2 1017 hPa-
18/05/2021 06:148.1 °C93 %7.2 °C5 km/hSSO13 km/h7.8 1017 hPa-
18/05/2021 05:598.3 °C93 %7.2 °C3 km/hS10 km/h7.8 1017 hPa-
18/05/2021 05:448.4 °C93 %7.2 °C2 km/hSSE14 km/h7.8 1016 hPa-
18/05/2021 05:298.4 °C93 %7.2 °C8 km/hSSE14 km/h8.3 1016 hPa-
18/05/2021 05:148.4 °C93 %7.2 °C5 km/hSSO18 km/h7.2 1016 hPa-
18/05/2021 04:598.2 °C93 %7.2 °C10 km/hS14 km/h7.2 1017 hPa-
18/05/2021 04:448.1 °C93 %7.2 °C5 km/hS18 km/h7.2 1017 hPa-
18/05/2021 04:298.1 °C92 %6.7 °C5 km/hSSE16 km/h7.2 1016 hPa-
18/05/2021 04:148.3 °C92 %7.2 °C5 km/hSO11 km/h7.8 1016 hPa-
18/05/2021 03:598.4 °C92 %7.2 °C10 km/hSSO13 km/h7.8 1016 hPa-
18/05/2021 03:448.6 °C92 %7.2 °C6 km/hS11 km/h8.3 1017 hPa-
18/05/2021 03:288.8 °C91 %7.2 °C5 km/hSSE16 km/h7.8 1017 hPa-
18/05/2021 03:149.0 °C91 %7.8 °C3 km/hSSO16 km/h8.3 1017 hPa-
18/05/2021 03:009.1 °C91 %7.8 °C6 km/hSSO13 km/h8.3 1017 hPa-
18/05/2021 02:449.3 °C91 %7.8 °C5 km/hSO8 km/h8.9 1016 hPa-
18/05/2021 02:299.3 °C91 %7.8 °C3 km/hS11 km/h8.9 1016 hPa-
18/05/2021 02:159.3 °C91 %7.8 °C5 km/hS14 km/h8.9 1016 hPa-
18/05/2021 01:599.3 °C91 %7.8 °C6 km/hS14 km/h8.3 1016 hPa-
18/05/2021 01:458.9 °C92 %7.8 °C5 km/hS14 km/h8.3 1016 hPa-
18/05/2021 01:298.3 °C92 %7.2 °C5 km/hS11 km/h7.8 1016 hPa-
18/05/2021 01:147.3 °C91 %6.1 °C2 km/hS6 km/h7.2 1016 hPa-
18/05/2021 00:597.3 °C89 %5.6 °C3 km/hSSE6 km/h7.2 1016 hPa-
18/05/2021 00:447.8 °C87 %5.6 °C5 km/hSSE6 km/h7.8 1016 hPa-
18/05/2021 00:298.2 °C88 %6.1 °C3 km/hSSO8 km/h7.8 1016 hPa-
18/05/2021 00:158.3 °C85 %6.1 °C3 km/hSSE6 km/h7.8 1016 hPa-


Minima :

Température : 7.3 °C
Humidité : 69 %
Point de rosée : 5.6 °C
Vent moyen : 2 km/h
Windchill : 6.7
Pression atm. : 1016 hPa
Maxima :

Température : 14.7 °C
Humidité : 94 %
Point de rosée : 8.9 °C
Vent moyen : 14 km/h
Windchill : 13.9
Pression atm. : 1018 hPa
Rafales max : 23 km/h
Cumul de pluie sur 24H : 0 mm

Le Mesnil-Thomas est une commune du département Eure-et-Loir (28).
La station météorologique du réseau de l'association la plus proche de Le Mesnil-Thomas est celle de Digny



Icône Facebook Association Météo Centre Icône Twitter Association Météo Centre Icône Chaîne Youtube Association Météo Centre Icône contact Association Météo Centre Icône Insta Association Météo Centre